Time;durP1;ratioP1;P1;durP2;ratioP2;P2;SDS_P1;SDS_P2;PMS_P1;PMS_P2;Temp;Humidity;BMP_temperature;BMP_pressure;BME280_temperature;BME280_humidity;BME280_pressure;Samples;Min_cycle;Max_cycle;Signal;HPM_P1;HPM_P2
2022/05/15 00:02:44;;;;;;;1.20;1.10;;;9.50;99.90;;;;;;4995690;28;20109;-68
2022/05/15 00:05:10;;;;;;;0.63;0.50;;;9.50;99.90;;;;;;4995327;28;20096;-68
2022/05/15 00:07:36;;;;;;;2.90;2.70;;;9.40;99.90;;;;;;4995291;28;20108;-68
2022/05/15 00:10:04;;;;;;;0.73;0.65;;;9.50;99.90;;;;;;4995432;28;20157;-68
2022/05/15 00:12:30;;;;;;;0.50;0.50;;;9.40;99.90;;;;;;4978289;28;20065;-67
2022/05/15 00:14:55;;;;;;;1.05;0.80;;;9.40;99.90;;;;;;4999208;28;20042;-68
2022/05/15 00:17:21;;;;;;;1.15;1.15;;;9.40;99.90;;;;;;5018282;28;20136;-69
2022/05/15 00:19:46;;;;;;;1.13;1.02;;;9.40;99.90;;;;;;5001594;28;20045;-68
2022/05/15 00:22:14;;;;;;;0.50;0.50;;;9.30;99.90;;;;;;5001339;28;20149;-67
2022/05/15 00:24:39;;;;;;;0.98;0.93;;;9.30;99.90;;;;;;5018683;28;20145;-68
2022/05/15 00:27:06;;;;;;;0.50;0.50;;;9.20;99.90;;;;;;5018878;28;20509;-68
2022/05/15 00:29:32;;;;;;;0.70;0.70;;;9.20;99.90;;;;;;5001417;28;20405;-69
2022/05/15 00:31:57;;;;;;;0.50;0.50;;;9.20;99.90;;;;;;4998964;28;20057;-68
2022/05/15 00:34:23;;;;;;;0.43;0.43;;;9.10;99.90;;;;;;4999109;28;20092;-68
2022/05/15 00:36:49;;;;;;;0.82;0.82;;;9.10;99.90;;;;;;4998865;28;20465;-68
2022/05/15 00:39:17;;;;;;;0.40;0.40;;;9.10;99.90;;;;;;4998807;28;20042;-69
2022/05/15 00:41:43;;;;;;;2.50;2.30;;;9.10;99.90;;;;;;4998855;28;20347;-67
2022/05/15 00:44:08;;;;;;;0.57;0.57;;;9.10;99.90;;;;;;4998770;28;20054;-68
2022/05/15 00:46:38;;;;;;;2.50;0.93;;;9.10;99.90;;;;;;5017552;28;20050;-68
2022/05/15 00:49:07;;;;;;;1.70;1.27;;;9.10;99.90;;;;;;5018592;28;20050;-68
2022/05/15 00:51:42;;;;;;;0.60;0.60;;;9.10;99.90;;;;;;5018162;28;20073;-68
2022/05/15 00:54:15;;;;;;;1.27;1.27;;;9.00;99.90;;;;;;5018188;28;20049;-68
2022/05/15 00:56:47;;;;;;;0.50;0.50;;;9.00;99.90;;;;;;5018150;28;20351;-68
2022/05/15 00:59:17;;;;;;;0.50;0.50;;;9.00;99.90;;;;;;5000312;28;20045;-67
2022/05/15 01:01:42;;;;;;;0.40;0.40;;;8.90;99.90;;;;;;5017925;28;20046;-68
2022/05/15 01:04:08;;;;;;;0.93;0.82;;;8.90;99.90;;;;;;5000834;28;20046;-68
2022/05/15 01:06:36;;;;;;;0.57;0.57;;;8.90;99.90;;;;;;5000768;28;20061;-69
2022/05/15 01:09:04;;;;;;;1.08;0.80;;;8.90;99.90;;;;;;5001032;28;20053;-69
2022/05/15 01:11:31;;;;;;;0.50;0.50;;;8.90;99.90;;;;;;5018001;28;20358;-69
2022/05/15 01:13:57;;;;;;;1.20;0.88;;;8.90;99.90;;;;;;5000446;28;20105;-68
2022/05/15 01:16:25;;;;;;;0.50;0.50;;;8.80;99.90;;;;;;4999266;28;20124;-68
2022/05/15 01:18:55;;;;;;;0.88;0.85;;;8.90;99.90;;;;;;5018111;28;20154;-68
2022/05/15 01:21:31;;;;;;;1.20;0.70;;;8.80;99.90;;;;;;5017780;28;20116;-69
2022/05/15 01:23:57;;;;;;;0.65;0.65;;;8.80;99.90;;;;;;5017611;28;20050;-68
2022/05/15 01:26:24;;;;;;;0.50;0.50;;;8.80;99.90;;;;;;5017694;28;20112;-68
2022/05/15 01:28:50;;;;;;;0.65;0.65;;;8.70;99.90;;;;;;5017144;28;20042;-68
2022/05/15 01:31:17;;;;;;;1.02;0.93;;;8.70;99.90;;;;;;5017359;28;20052;-68
2022/05/15 01:33:47;;;;;;;0.60;0.60;;;8.70;99.90;;;;;;5000334;28;20060;-68
2022/05/15 01:36:12;;;;;;;0.60;0.60;;;8.60;99.90;;;;;;5000149;28;20054;-69
2022/05/15 01:38:38;;;;;;;0.50;0.50;;;8.70;99.90;;;;;;5017253;28;20044;-70
2022/05/15 01:41:03;;;;;;;2.00;1.50;;;8.60;99.90;;;;;;4984027;28;20050;-68
2022/05/15 01:43:29;;;;;;;0.50;0.50;;;8.60;99.90;;;;;;4999334;28;20476;-68
2022/05/15 01:45:55;;;;;;;2.47;0.80;;;8.60;99.90;;;;;;5015604;28;20045;-69
2022/05/15 01:48:20;;;;;;;1.35;1.25;;;8.60;99.90;;;;;;5016511;28;20037;-68
2022/05/15 01:50:46;;;;;;;14.65;1.23;;;8.50;99.90;;;;;;5017121;28;20378;-70
2022/05/15 01:53:11;;;;;;;0.63;0.63;;;8.50;99.90;;;;;;5017002;28;20476;-70
2022/05/15 01:55:37;;;;;;;0.50;0.50;;;8.50;99.90;;;;;;4999812;28;20045;-69
2022/05/15 01:58:02;;;;;;;1.25;1.15;;;8.50;99.90;;;;;;5017035;28;20049;-67
2022/05/15 02:00:29;;;;;;;2.58;2.05;;;8.40;99.90;;;;;;5000062;28;20358;-69
2022/05/15 02:02:55;;;;;;;0.60;0.60;;;8.40;99.90;;;;;;5016488;28;20042;-68
2022/05/15 02:05:21;;;;;;;0.60;0.60;;;8.40;99.90;;;;;;5017466;28;20041;-68
2022/05/15 02:07:50;;;;;;;0.50;0.50;;;8.40;99.90;;;;;;5000037;28;20042;-67
2022/05/15 02:10:16;;;;;;;1.27;1.17;;;8.30;99.90;;;;;;4999562;28;20065;-67
2022/05/15 02:12:42;;;;;;;0.50;0.50;;;8.30;99.90;;;;;;4999538;28;20450;-69
2022/05/15 02:15:08;;;;;;;0.50;0.50;;;8.30;99.90;;;;;;5017006;28;20056;-68
2022/05/15 02:17:35;;;;;;;0.50;0.50;;;8.20;99.90;;;;;;5016491;28;20072;-69
2022/05/15 02:20:00;;;;;;;1.55;1.30;;;8.20;99.90;;;;;;5016894;28;20050;-68
2022/05/15 02:22:26;;;;;;;0.60;0.60;;;8.20;99.90;;;;;;5016429;28;20100;-68
2022/05/15 02:24:52;;;;;;;1.00;0.60;;;8.20;99.90;;;;;;5016456;28;20050;-68
2022/05/15 02:27:17;;;;;;;0.65;0.65;;;8.20;99.90;;;;;;5016394;28;20096;-69
2022/05/15 02:29:43;;;;;;;1.08;1.08;;;8.20;99.90;;;;;;4999228;28;20054;-70
2022/05/15 02:32:08;;;;;;;0.40;0.40;;;8.20;99.90;;;;;;5016378;28;20449;-68
2022/05/15 02:34:34;;;;;;;0.77;0.77;;;8.20;99.90;;;;;;5016557;28;20053;-68
2022/05/15 02:37:00;;;;;;;0.90;0.88;;;8.10;99.90;;;;;;4998779;28;20363;-68
2022/05/15 02:39:25;;;;;;;0.50;0.50;;;8.10;99.90;;;;;;5016251;28;20046;-70
2022/05/15 02:41:51;;;;;;;0.90;0.90;;;8.10;99.90;;;;;;5015625;28;20461;-68
2022/05/15 02:44:16;;;;;;;0.50;0.50;;;8.10;99.90;;;;;;5015818;28;20129;-68
2022/05/15 02:46:42;;;;;;;0.60;0.60;;;8.00;99.90;;;;;;5015803;28;20046;-70
2022/05/15 02:51:51;;;;;;;0.50;0.50;;;8.00;99.90;;;;;;5016231;28;20042;-69
2022/05/15 02:54:17;;;;;;;1.85;1.35;;;8.00;99.90;;;;;;5016268;28;20038;-68
2022/05/15 02:56:43;;;;;;;0.43;0.43;;;8.00;99.90;;;;;;5015666;28;20080;-69
2022/05/15 02:59:09;;;;;;;0.43;0.43;;;8.00;99.90;;;;;;4998612;28;20057;-68
2022/05/15 03:01:35;;;;;;;5.68;3.10;;;7.90;99.90;;;;;;4998433;28;20041;-68
2022/05/15 03:04:02;;;;;;;0.60;0.60;;;7.90;99.90;;;;;;5015785;28;20046;-69
2022/05/15 03:06:27;;;;;;;0.60;0.60;;;7.90;99.90;;;;;;5012804;28;20056;-68
2022/05/15 03:08:53;;;;;;;0.77;0.77;;;7.80;99.90;;;;;;4998934;28;20054;-68
2022/05/15 03:11:19;;;;;;;3.85;3.55;;;7.90;99.90;;;;;;5015008;28;20072;-69
2022/05/15 03:13:46;;;;;;;0.60;0.60;;;7.90;99.90;;;;;;5015981;28;20045;-69
2022/05/15 03:16:13;;;;;;;0.60;0.60;;;7.80;99.90;;;;;;5015815;28;20042;-69
2022/05/15 03:18:44;;;;;;;0.60;0.60;;;7.80;99.90;;;;;;5015589;28;20466;-68
2022/05/15 03:21:13;;;;;;;2.22;1.25;;;7.80;99.90;;;;;;5015672;28;20100;-69
2022/05/15 03:23:39;;;;;;;0.60;0.60;;;7.80;99.90;;;;;;5015608;28;20514;-67
2022/05/15 03:26:04;;;;;;;1.52;0.75;;;7.80;99.90;;;;;;4997846;28;20085;-68
2022/05/15 03:28:30;;;;;;;0.57;0.57;;;7.80;99.90;;;;;;5016000;28;20415;-70
2022/05/15 03:30:56;;;;;;;0.70;0.70;;;7.70;99.90;;;;;;4998010;28;20046;-68
2022/05/15 03:33:21;;;;;;;1.80;0.98;;;7.70;99.90;;;;;;5015285;28;20041;-70
2022/05/15 03:35:47;;;;;;;1.85;1.35;;;7.70;99.90;;;;;;5015583;28;20084;-69
2022/05/15 03:38:13;;;;;;;0.82;0.63;;;7.70;99.90;;;;;;4997772;28;20348;-69
2022/05/15 03:40:39;;;;;;;1.30;1.20;;;7.70;99.90;;;;;;5014746;28;20060;-68
2022/05/15 03:43:05;;;;;;;0.70;0.70;;;7.70;99.90;;;;;;5015480;28;20042;-69
2022/05/15 03:45:31;;;;;;;0.50;0.50;;;7.70;99.90;;;;;;5014841;28;20053;-68
2022/05/15 03:47:56;;;;;;;0.75;0.60;;;7.70;99.90;;;;;;4997948;28;20085;-69
2022/05/15 03:50:26;;;;;;;1.33;1.05;;;7.70;99.90;;;;;;4995756;28;20481;-69
2022/05/15 03:52:51;;;;;;;0.77;0.77;;;7.70;99.90;;;;;;5015013;28;20112;-70
2022/05/15 03:55:17;;;;;;;0.50;0.50;;;7.80;99.90;;;;;;5014938;28;20050;-68
2022/05/15 03:57:44;;;;;;;2.33;1.20;;;7.80;99.90;;;;;;5014787;28;20119;-70
2022/05/15 04:00:13;;;;;;;0.60;0.60;;;7.80;99.90;;;;;;5015298;28;20046;-70
2022/05/15 04:02:39;;;;;;;1.65;1.25;;;7.80;99.90;;;;;;5012435;28;20137;-69
2022/05/15 04:05:06;;;;;;;6.28;1.30;;;7.90;99.90;;;;;;5015047;28;20145;-68
2022/05/15 04:07:32;;;;;;;1.67;1.02;;;7.90;99.90;;;;;;5015102;28;20104;-70
2022/05/15 04:09:57;;;;;;;0.60;0.60;;;7.90;99.90;;;;;;5011662;28;20081;-69
2022/05/15 04:12:23;;;;;;;0.45;0.45;;;7.90;99.90;;;;;;4997343;28;20049;-70
2022/05/15 04:14:48;;;;;;;0.82;0.82;;;8.00;99.90;;;;;;5014766;28;20050;-69
2022/05/15 04:17:14;;;;;;;0.55;0.55;;;8.00;99.90;;;;;;5014625;28;20053;-68
2022/05/15 04:19:40;;;;;;;0.75;0.60;;;8.00;99.90;;;;;;5014728;28;20061;-68
2022/05/15 04:22:07;;;;;;;0.90;0.90;;;8.10;99.90;;;;;;5014795;28;20042;-69
2022/05/15 04:24:34;;;;;;;0.40;0.40;;;8.20;99.90;;;;;;5015746;28;20049;-69
2022/05/15 04:27:00;;;;;;;1.80;1.70;;;8.20;99.90;;;;;;4997449;28;20046;-69
2022/05/15 04:29:27;;;;;;;0.50;0.50;;;8.30;99.90;;;;;;4995145;28;20039;-70
2022/05/15 04:31:55;;;;;;;0.93;0.93;;;8.40;99.90;;;;;;4978446;28;20058;-67
2022/05/15 04:34:25;;;;;;;0.63;0.63;;;8.40;99.90;;;;;;4994895;28;20051;-68
2022/05/15 04:36:52;;;;;;;1.58;1.48;;;8.50;99.90;;;;;;4995269;28;20078;-68
2022/05/15 04:39:18;;;;;;;1.60;0.95;;;8.60;99.90;;;;;;4997073;28;20038;-69
2022/05/15 04:41:43;;;;;;;0.63;0.63;;;8.60;99.90;;;;;;5014177;28;20100;-69
2022/05/15 04:44:09;;;;;;;1.45;1.35;;;8.70;99.90;;;;;;5014685;28;20046;-69
2022/05/15 04:46:34;;;;;;;0.90;0.88;;;8.90;99.90;;;;;;5014805;28;20061;-69
2022/05/15 04:49:00;;;;;;;1.15;0.88;;;8.80;99.90;;;;;;5014450;28;20046;-68
2022/05/15 04:51:26;;;;;;;4.85;1.00;;;8.90;99.90;;;;;;5014482;28;20038;-68
2022/05/15 04:53:52;;;;;;;0.50;0.50;;;9.00;99.90;;;;;;5014512;28;20521;-69
2022/05/15 04:56:18;;;;;;;1.00;0.95;;;9.10;99.90;;;;;;5014307;28;20053;-69
2022/05/15 04:58:43;;;;;;;0.60;0.60;;;9.20;99.90;;;;;;5014543;28;20053;-68
2022/05/15 05:01:09;;;;;;;2.15;0.93;;;9.30;99.90;;;;;;5017420;28;20053;-69
2022/05/15 05:03:34;;;;;;;0.77;0.77;;;9.40;99.90;;;;;;5000916;28;20050;-68
2022/05/15 05:06:00;;;;;;;1.02;0.93;;;9.50;99.90;;;;;;5000716;28;20050;-68
2022/05/15 05:08:25;;;;;;;1.65;1.13;;;9.70;99.90;;;;;;5017881;28;20393;-69
2022/05/15 05:10:51;;;;;;;0.70;0.70;;;9.70;99.90;;;;;;5017629;28;20053;-69
2022/05/15 05:13:16;;;;;;;3.83;1.92;;;10.00;99.90;;;;;;5000583;28;20046;-69
2022/05/15 05:15:42;;;;;;;1.17;0.85;;;10.20;99.90;;;;;;4984265;28;20046;-70
2022/05/15 05:18:08;;;;;;;2.55;2.35;;;10.50;99.90;;;;;;5017774;28;20072;-69
2022/05/15 05:20:35;;;;;;;0.47;0.47;;;10.80;99.90;;;;;;5020725;28;20096;-68
2022/05/15 05:23:03;;;;;;;0.60;0.60;;;11.00;99.90;;;;;;5002528;28;20080;-70
2022/05/15 05:25:29;;;;;;;1.75;0.80;;;11.60;99.90;;;;;;4999839;28;20069;-67
2022/05/15 05:27:54;;;;;;;1.35;0.93;;;12.60;99.90;;;;;;5017702;28;20046;-67
2022/05/15 05:30:23;;;;;;;1.15;1.00;;;13.90;99.90;;;;;;5017200;28;20038;-68
2022/05/15 05:32:49;;;;;;;4.25;1.10;;;14.80;99.90;;;;;;5005172;28;20054;-68
2022/05/15 05:35:16;;;;;;;0.57;0.57;;;15.70;99.90;;;;;;5000713;28;20038;-69
2022/05/15 05:37:42;;;;;;;2.30;1.23;;;16.40;99.90;;;;;;5016793;28;20113;-69
2022/05/15 05:40:10;;;;;;;1.80;0.90;;;17.10;99.90;;;;;;5011088;28;20085;-65
2022/05/15 05:42:36;;;;;;;1.00;0.73;;;18.00;99.90;;;;;;4997478;28;20133;-69
2022/05/15 05:45:02;;;;;;;0.50;0.50;;;18.30;99.90;;;;;;4997772;28;20077;-68
2022/05/15 05:47:29;;;;;;;0.80;0.80;;;18.60;99.90;;;;;;5003221;28;20141;-69
2022/05/15 05:49:55;;;;;;;0.63;0.57;;;19.10;99.90;;;;;;4998866;28;20050;-68
2022/05/15 05:52:21;;;;;;;0.65;0.65;;;19.40;99.90;;;;;;5000172;28;20061;-69
2022/05/15 05:54:47;;;;;;;3.97;0.88;;;19.60;99.90;;;;;;4999901;28;20046;-70
2022/05/15 05:57:13;;;;;;;0.98;0.93;;;19.90;99.90;;;;;;5016998;28;20111;-67
2022/05/15 05:59:38;;;;;;;1.10;1.00;;;20.10;99.90;;;;;;5015071;28;20100;-70
2022/05/15 06:02:06;;;;;;;0.63;0.63;;;20.60;99.90;;;;;;5016429;28;20426;-69
2022/05/15 06:04:46;;;;;;;1.38;0.90;;;20.90;99.90;;;;;;5018522;28;20046;-68
2022/05/15 06:07:14;;;;;;;2.05;1.48;;;20.90;99.90;;;;;;5019127;28;20057;-67
2022/05/15 06:09:43;;;;;;;0.50;0.50;;;21.20;99.40;;;;;;4999915;28;20057;-71
2022/05/15 06:12:10;;;;;;;1.65;0.70;;;21.20;99.90;;;;;;5015911;28;20161;-68
2022/05/15 06:14:36;;;;;;;0.20;0.20;;;21.20;99.40;;;;;;5016980;28;20056;-68
2022/05/15 06:17:03;;;;;;;0.28;0.28;;;21.50;98.40;;;;;;5016116;28;20057;-70
2022/05/15 06:19:28;;;;;;;1.00;0.95;;;21.50;99.60;;;;;;5016279;28;20054;-69
2022/05/15 06:21:54;;;;;;;0.73;0.65;;;21.70;98.40;;;;;;5016571;28;20038;-69
2022/05/15 06:24:20;;;;;;;0.40;0.32;;;22.20;98.40;;;;;;4997231;28;20038;-69
2022/05/15 06:26:45;;;;;;;0.88;0.65;;;22.10;97.90;;;;;;5016414;28;20096;-67
2022/05/15 06:29:11;;;;;;;1.60;0.82;;;22.40;96.60;;;;;;5016080;28;20442;-68
2022/05/15 06:31:37;;;;;;;0.50;0.50;;;23.00;94.70;;;;;;5015983;28;20049;-67
2022/05/15 06:34:02;;;;;;;13.68;0.93;;;22.90;93.70;;;;;;5000452;28;20056;-67
2022/05/15 06:36:28;;;;;;;2.63;1.15;;;23.00;95.00;;;;;;5005414;28;20068;-68
2022/05/15 06:38:53;;;;;;;1.20;0.32;;;23.10;94.40;;;;;;5015993;28;20041;-69
2022/05/15 06:41:19;;;;;;;0.90;0.90;;;23.40;92.90;;;;;;5016035;28;20112;-71
2022/05/15 06:43:45;;;;;;;4.18;0.98;;;23.30;92.50;;;;;;5016248;28;20054;-70
2022/05/15 06:46:10;;;;;;;0.47;0.45;;;23.40;92.10;;;;;;5015454;28;20061;-70
2022/05/15 06:48:38;;;;;;;0.30;0.30;;;23.70;91.30;;;;;;5016446;28;20053;-72
2022/05/15 06:51:05;;;;;;;2.75;0.80;;;23.60;90.50;;;;;;5016062;28;20057;-70
2022/05/15 06:53:31;;;;;;;0.80;0.77;;;23.50;89.70;;;;;;5015592;28;20068;-69
2022/05/15 06:58:41;;;;;;;1.90;0.98;;;23.90;89.70;;;;;;5015187;28;20061;-71
2022/05/15 07:01:07;;;;;;;1.05;0.68;;;23.70;85.00;;;;;;4999358;28;20050;-69
2022/05/15 07:03:33;;;;;;;1.02;0.40;;;24.00;86.40;;;;;;5016117;28;20084;-69
2022/05/15 07:05:58;;;;;;;1.40;1.05;;;24.00;88.70;;;;;;5015799;28;20473;-71
2022/05/15 07:08:24;;;;;;;1.63;1.02;;;24.20;83.80;;;;;;5015795;28;20148;-69
2022/05/15 07:10:50;;;;;;;0.75;0.50;;;24.40;85.70;;;;;;5015970;28;20060;-69
2022/05/15 07:13:16;;;;;;;0.68;0.47;;;24.40;80.20;;;;;;4998106;28;20367;-69
2022/05/15 07:15:41;;;;;;;0.52;0.52;;;24.40;83.40;;;;;;5015012;28;20435;-71
2022/05/15 07:18:08;;;;;;;0.20;0.20;;;24.50;80.90;;;;;;5015500;28;20085;-70
2022/05/15 07:20:34;;;;;;;2.85;1.58;;;24.00;81.20;;;;;;5015990;28;20045;-70
2022/05/15 07:23:00;;;;;;;0.60;0.47;;;24.00;83.20;;;;;;5015224;28;20089;-69
2022/05/15 07:25:25;;;;;;;0.40;0.38;;;24.40;81.60;;;;;;4980996;28;20148;-70
2022/05/15 07:27:51;;;;;;;1.92;0.55;;;24.10;81.30;;;;;;5013965;28;20135;-69
2022/05/15 07:30:17;;;;;;;0.45;0.45;;;24.00;82.50;;;;;;5014728;28;20037;-70
2022/05/15 07:32:43;;;;;;;1.45;1.15;;;24.30;79.30;;;;;;5011959;28;20064;-70
2022/05/15 07:35:08;;;;;;;1.40;0.77;;;24.40;78.70;;;;;;4997937;28;20140;-70
2022/05/15 07:37:34;;;;;;;1.02;0.30;;;24.80;80.10;;;;;;4997808;28;20042;-70
2022/05/15 07:40:00;;;;;;;3.05;0.65;;;24.30;78.30;;;;;;5015411;28;20453;-69
2022/05/15 07:42:25;;;;;;;1.55;1.20;;;24.00;78.20;;;;;;5014766;28;20077;-69
2022/05/15 07:44:54;;;;;;;1.27;1.17;;;24.30;77.00;;;;;;5015524;28;20046;-70
2022/05/15 07:47:20;;;;;;;0.40;0.40;;;24.70;77.50;;;;;;5015014;28;20054;-71
2022/05/15 07:49:45;;;;;;;0.22;0.10;;;24.50;74.10;;;;;;5014893;28;20046;-70
2022/05/15 07:52:11;;;;;;;0.10;0.10;;;24.90;76.50;;;;;;5014418;28;20038;-70
2022/05/15 07:54:37;;;;;;;5.43;1.75;;;25.20;74.70;;;;;;5013448;28;20581;-69
2022/05/15 07:57:03;;;;;;;6.18;1.00;;;25.40;72.90;;;;;;5011591;28;20461;-69
2022/05/15 07:59:29;;;;;;;0.10;0.10;;;25.20;71.10;;;;;;5012886;28;20049;-71
2022/05/15 08:01:55;;;;;;;0.68;0.38;;;25.00;72.50;;;;;;5013176;28;20365;-70
2022/05/15 08:04:24;;;;;;;0.10;0.10;;;24.90;70.60;;;;;;5013941;28;20099;-71
2022/05/15 08:09:33;;;;;;;1.27;1.17;;;24.80;70.30;;;;;;5014364;28;20077;-69
2022/05/15 08:11:59;;;;;;;0.63;0.57;;;24.80;70.60;;;;;;5014571;28;20084;-70
2022/05/15 08:14:25;;;;;;;0.55;0.40;;;24.50;69.60;;;;;;4998348;28;20042;-70
2022/05/15 08:16:50;;;;;;;1.15;0.30;;;24.70;70.10;;;;;;4997682;28;20111;-71
2022/05/15 08:24:45;;;;;;;4.40;1.75;;;25.10;69.80;;;;;;5014184;28;20046;-69
2022/05/15 08:27:11;;;;;;;0.15;0.15;;;24.20;69.00;;;;;;5014209;28;20535;-69
2022/05/15 08:29:38;;;;;;;0.77;0.30;;;24.40;70.50;;;;;;5014519;28;20046;-70
2022/05/15 08:32:05;;;;;;;0.47;0.40;;;24.80;70.50;;;;;;5014617;28;20359;-70
2022/05/15 08:34:30;;;;;;;0.30;0.20;;;24.70;71.50;;;;;;5015009;28;20049;-71
2022/05/15 08:36:56;;;;;;;0.98;0.25;;;24.80;70.40;;;;;;5018201;28;20038;-69
2022/05/15 08:39:22;;;;;;;0.30;0.30;;;24.50;68.80;;;;;;5018638;28;20100;-71
2022/05/15 08:42:12;;;;;;;0.93;0.63;;;24.40;68.70;;;;;;5018120;28;20458;-68
2022/05/15 08:44:46;;;;;;;0.30;0.20;;;24.50;67.40;;;;;;5007015;28;20482;-70
2022/05/15 08:47:22;;;;;;;0.13;0.13;;;24.60;71.40;;;;;;5018288;28;20128;-69
2022/05/15 08:49:52;;;;;;;0.30;0.30;;;24.80;69.90;;;;;;5018133;28;20099;-70
2022/05/15 08:52:28;;;;;;;1.67;0.63;;;25.00;68.90;;;;;;5018308;28;20050;-69
2022/05/15 08:55:22;;;;;;;1.83;1.20;;;24.40;66.80;;;;;;5018630;28;20108;-69
2022/05/15 08:58:01;;;;;;;1.90;1.20;;;24.70;67.60;;;;;;5017503;28;20513;-69
2022/05/15 09:00:39;;;;;;;1.17;0.57;;;24.70;67.60;;;;;;5018135;28;20065;-70
2022/05/15 09:03:16;;;;;;;0.25;0.25;;;24.20;68.10;;;;;;5015170;28;20056;-69
2022/05/15 09:06:16;;;;;;;0.80;0.68;;;24.20;69.10;;;;;;5018295;28;20053;-70
2022/05/15 09:09:03;;;;;;;0.15;0.15;;;24.30;68.60;;;;;;5003716;28;20046;-69
2022/05/15 09:11:47;;;;;;;0.55;0.30;;;24.00;69.00;;;;;;5017906;28;20115;-70
2022/05/15 09:14:30;;;;;;;1.65;1.27;;;23.70;69.00;;;;;;5017317;28;20042;-69
2022/05/15 09:16:59;;;;;;;1.30;0.57;;;23.20;71.10;;;;;;5017920;28;20085;-70
2022/05/15 09:19:25;;;;;;;0.20;0.20;;;22.70;71.60;;;;;;5017788;28;20053;-70
2022/05/15 09:21:56;;;;;;;2.25;1.00;;;22.40;71.10;;;;;;5003386;28;20446;-70
2022/05/15 09:24:46;;;;;;;0.88;0.52;;;22.50;73.60;;;;;;5017701;28;20057;-70
2022/05/15 09:27:23;;;;;;;3.97;1.40;;;22.50;75.10;;;;;;5017947;28;20081;-74
2022/05/15 09:30:01;;;;;;;0.82;0.47;;;22.30;73.20;;;;;;5018769;28;20123;-71
2022/05/15 09:32:39;;;;;;;0.85;0.57;;;22.30;74.80;;;;;;4986639;28;20046;-69
2022/05/15 09:35:32;;;;;;;0.15;0.15;;;22.40;74.50;;;;;;5006718;28;20030;-67
2022/05/15 09:40:42;;;;;;;0.20;0.20;;;22.80;72.80;;;;;;5018965;28;20355;-67
2022/05/15 09:43:32;;;;;;;0.40;0.40;;;23.10;72.60;;;;;;5019709;28;20056;-68
2022/05/15 09:46:19;;;;;;;1.85;1.38;;;23.10;71.70;;;;;;5016788;28;20473;-69
2022/05/15 09:49:00;;;;;;;0.20;0.20;;;23.40;71.60;;;;;;5016305;28;20053;-70
2022/05/15 09:51:35;;;;;;;0.17;0.17;;;23.20;70.40;;;;;;5001111;28;20042;-69
2022/05/15 09:54:00;;;;;;;0.17;0.17;;;22.90;70.30;;;;;;5017147;28;20050;-69
2022/05/15 09:56:30;;;;;;;1.35;0.60;;;22.80;71.30;;;;;;5017045;28;20052;-68
2022/05/15 09:59:08;;;;;;;0.60;0.60;;;22.10;71.50;;;;;;5016658;28;20061;-70
2022/05/15 10:02:16;;;;;;;5.32;0.90;;;22.10;74.80;;;;;;5017049;28;20050;-69
2022/05/15 10:04:48;;;;;;;0.30;0.30;;;22.00;75.60;;;;;;4937196;29;20044;-70
2022/05/15 10:07:38;;;;;;;0.80;0.60;;;22.20;73.40;;;;;;5007343;28;20064;-69
2022/05/15 10:10:18;;;;;;;0.10;0.10;;;22.20;74.50;;;;;;5017025;28;20145;-70
2022/05/15 10:12:47;;;;;;;0.65;0.45;;;21.90;74.10;;;;;;5016423;28;20089;-69
2022/05/15 10:15:15;;;;;;;0.68;0.50;;;22.10;76.00;;;;;;4999154;28;20382;-69
2022/05/15 10:17:51;;;;;;;1.77;0.52;;;21.90;76.80;;;;;;5016693;28;20060;-69
2022/05/15 10:20:29;;;;;;;2.72;0.50;;;21.90;75.20;;;;;;4999119;28;20120;-71
2022/05/15 10:23:17;;;;;;;0.90;0.52;;;22.10;76.30;;;;;;5016677;28;20132;-71
2022/05/15 10:25:48;;;;;;;0.50;0.47;;;22.00;75.20;;;;;;5016425;28;20056;-70
2022/05/15 10:28:39;;;;;;;1.48;1.15;;;22.20;76.10;;;;;;5016072;28;20476;-70
2022/05/15 10:31:10;;;;;;;0.60;0.60;;;22.20;77.60;;;;;;5000289;28;20057;-69
2022/05/15 10:33:41;;;;;;;1.27;0.70;;;22.40;75.10;;;;;;5016444;28;20064;-69
2022/05/15 10:36:51;;;;;;;0.60;0.47;;;22.20;74.00;;;;;;5015986;28;20046;-69
2022/05/15 10:39:50;;;;;;;0.50;0.50;;;22.30;75.40;;;;;;5016984;28;20056;-69
2022/05/15 10:42:27;;;;;;;0.10;0.10;;;22.50;75.10;;;;;;5015789;28;20060;-70
2022/05/15 10:45:14;;;;;;;1.10;1.00;;;22.60;74.00;;;;;;4982816;28;20056;-70
2022/05/15 10:48:02;;;;;;;1.65;1.55;;;22.70;73.70;;;;;;5016147;28;20057;-69
2022/05/15 10:50:46;;;;;;;2.00;1.25;;;22.60;72.90;;;;;;4999036;28;20478;-70
2022/05/15 10:59:53;;;;;;;0.63;0.60;;;22.80;74.70;;;;;;5015640;28;20066;-70
2022/05/15 11:02:45;;;;;;;1.45;0.50;;;22.90;74.00;;;;;;5016024;28;20449;-69
2022/05/15 11:05:44;;;;;;;0.50;0.50;;;22.80;72.70;;;;;;5016251;28;20042;-70
2022/05/15 11:08:33;;;;;;;0.20;0.20;;;23.00;75.80;;;;;;5016145;28;20289;-69
2022/05/15 11:11:05;;;;;;;0.28;0.28;;;23.20;73.20;;;;;;5004410;28;20085;-70
2022/05/15 11:13:54;;;;;;;1.13;0.57;;;23.20;70.20;;;;;;5015290;28;20053;-70
2022/05/15 11:16:41;;;;;;;1.98;0.90;;;23.30;70.70;;;;;;5015482;28;20049;-70
2022/05/15 11:19:13;;;;;;;0.20;0.20;;;23.30;70.10;;;;;;5015710;28;20046;-69
2022/05/15 11:22:03;;;;;;;0.20;0.20;;;23.30;70.90;;;;;;5015513;28;20402;-70
2022/05/15 11:24:41;;;;;;;1.00;0.68;;;23.40;70.80;;;;;;5015514;28;20081;-69
2022/05/15 11:27:18;;;;;;;0.47;0.47;;;23.40;69.40;;;;;;5015253;28;20469;-70
2022/05/15 11:29:49;;;;;;;0.30;0.30;;;23.30;70.00;;;;;;5015579;28;20342;-68
2022/05/15 11:32:32;;;;;;;0.20;0.20;;;23.00;69.70;;;;;;5015895;28;20053;-69
2022/05/15 11:35:25;;;;;;;0.20;0.20;;;23.00;71.00;;;;;;4998228;28;20446;-70
2022/05/15 11:37:56;;;;;;;0.35;0.20;;;23.20;70.50;;;;;;5015606;28;20089;-68
2022/05/15 11:40:36;;;;;;;0.40;0.35;;;23.40;68.40;;;;;;5014861;28;20428;-68
2022/05/15 11:43:24;;;;;;;2.28;1.20;;;23.10;68.00;;;;;;5013693;28;20050;-70
2022/05/15 11:45:51;;;;;;;0.25;0.25;;;22.90;69.70;;;;;;5014402;28;20128;-73
2022/05/15 11:48:19;;;;;;;0.95;0.70;;;23.40;73.30;;;;;;5014240;28;20524;-74
2022/05/15 11:51:13;;;;;;;0.10;0.10;;;23.70;70.20;;;;;;4995260;28;20439;-73
2022/05/15 11:53:55;;;;;;;0.20;0.20;;;23.90;69.20;;;;;;5011213;28;20072;-72
2022/05/15 11:56:25;;;;;;;0.52;0.52;;;23.60;66.70;;;;;;4996723;28;20049;-70
2022/05/15 11:59:01;;;;;;;0.50;0.50;;;23.40;68.00;;;;;;5013297;28;20477;-69
2022/05/15 12:01:38;;;;;;;0.17;0.17;;;23.30;67.90;;;;;;5014186;28;20344;-71
2022/05/15 12:04:18;;;;;;;1.33;1.23;;;23.40;69.60;;;;;;5013898;28;20466;-70
2022/05/15 12:07:04;;;;;;;0.45;0.43;;;23.40;67.50;;;;;;5013734;28;20061;-71
2022/05/15 12:09:39;;;;;;;0.68;0.68;;;23.20;67.80;;;;;;4983745;28;20065;-70
2022/05/15 12:12:31;;;;;;;0.20;0.20;;;23.40;66.30;;;;;;5018138;28;20057;-71
2022/05/15 12:15:16;;;;;;;0.15;0.15;;;23.50;67.60;;;;;;5017703;28;20054;-71
2022/05/15 12:17:44;;;;;;;1.00;0.95;;;23.80;67.40;;;;;;5017934;28;20054;-71
2022/05/15 12:20:17;;;;;;;0.20;0.20;;;23.90;66.70;;;;;;5011919;28;20057;-72
2022/05/15 12:22:55;;;;;;;2.90;0.30;;;24.20;68.10;;;;;;4997889;28;20103;-71
2022/05/15 12:25:26;;;;;;;0.15;0.15;;;24.30;65.90;;;;;;5014917;28;20049;-71
2022/05/15 12:30:52;;;;;;;0.35;0.35;;;24.50;64.30;;;;;;5017877;28;20057;-70
2022/05/15 12:33:26;;;;;;;0.50;0.50;;;24.40;65.90;;;;;;5011896;28;20485;-70
2022/05/15 12:35:52;;;;;;;1.17;1.08;;;24.40;64.70;;;;;;5006704;28;20056;-69
2022/05/15 12:38:21;;;;;;;1.10;1.00;;;24.40;65.60;;;;;;5015754;28;20038;-70
2022/05/15 12:41:02;;;;;;;0.75;0.47;;;24.20;65.80;;;;;;5015854;28;20052;-70
2022/05/15 12:43:35;;;;;;;0.60;0.17;;;24.30;64.90;;;;;;4980868;28;20386;-70
2022/05/15 12:46:01;;;;;;;0.85;0.50;;;24.20;64.70;;;;;;4998539;28;20058;-70
2022/05/15 12:48:28;;;;;;;0.73;0.30;;;24.20;65.30;;;;;;4998667;28;20046;-70
2022/05/15 12:51:07;;;;;;;0.63;0.57;;;24.30;65.50;;;;;;4998413;28;20096;-72
2022/05/15 12:53:42;;;;;;;0.73;0.57;;;24.20;65.30;;;;;;5016503;28;20096;-71
2022/05/15 12:56:14;;;;;;;0.47;0.38;;;24.30;64.20;;;;;;5000960;28;20431;-69
2022/05/15 12:58:41;;;;;;;0.40;0.40;;;24.50;65.80;;;;;;5018145;28;20046;-70
2022/05/15 13:01:06;;;;;;;0.63;0.47;;;24.70;65.10;;;;;;5017936;28;20525;-70
2022/05/15 13:03:33;;;;;;;0.65;0.38;;;24.70;63.50;;;;;;5018038;28;20138;-70
2022/05/15 13:06:07;;;;;;;16.35;1.20;;;24.70;65.20;;;;;;5017941;28;20050;-70
2022/05/15 13:08:56;;;;;;;1.00;0.52;;;24.80;64.30;;;;;;5000706;28;20132;-70
2022/05/15 13:11:48;;;;;;;0.80;0.80;;;24.80;62.60;;;;;;5017759;28;20050;-70
2022/05/15 13:14:29;;;;;;;0.70;0.50;;;24.80;62.90;;;;;;5017704;28;20053;-69
2022/05/15 13:16:56;;;;;;;0.10;0.10;;;24.60;64.00;;;;;;5000578;28;20082;-67
2022/05/15 13:19:41;;;;;;;0.30;0.30;;;24.70;64.20;;;;;;5019169;28;20057;-68
2022/05/15 13:22:12;;;;;;;0.50;0.40;;;24.90;64.40;;;;;;5017164;28;20124;-67
2022/05/15 13:24:38;;;;;;;0.15;0.15;;;24.70;61.80;;;;;;5017872;28;20078;-68
2022/05/15 13:27:04;;;;;;;0.10;0.10;;;24.60;61.80;;;;;;5017333;28;20469;-69
2022/05/15 13:29:35;;;;;;;1.05;0.50;;;24.50;62.30;;;;;;5017465;28;20041;-70
2022/05/15 13:32:02;;;;;;;0.20;0.20;;;24.40;62.20;;;;;;5000235;28;20058;-68
2022/05/15 13:34:28;;;;;;;0.20;0.20;;;24.40;62.20;;;;;;4987907;28;20378;-69